map of GBE home
Great Circle Mapper logo
GBE - Airport
Location
City:  Gaborone, Botswana
Name:Sir Seretse Khama International Airport
ICAO / IATA:FBSK / GBE

Details
Type:Airport (Aerodrome, Airfield)
Use:Public/Civil, International (customs port of entry)
Latitude:2433'19"S (-24.555224)
Longitude:2555'06"E (25.918208)
Datum:WGS 1984
Elevation:3299 ft (1006 m)
Variation:15.4W (WMM2010 magnetic declination)
Runways:1
Longest:9843 × 148 ft (3000 × 45 m), paved

Time
Time Zone:UTC+2
Local Time:

Weather
METAR:FBSK 231600Z 06007KT 010V090 9999 FEW030 27/13 Q1017 NOSIG
TAF:FBSK 231500Z 2318/2424 02008KT CAVOK= TAF FWCL 231430Z 2318/2424 VRB03KT CAVOK
BECMG 2406/2408 06010KT 9999 SCT030
FM241600 VRB03KT CAVOK

Related Locations
Nearby:
Farthest:HNM: 12146 mi / 19547 km
Hana, Maui, HI, US

Find:

   beyond  
but within

Other Information
Maps:
NOTAMs:
Links:
Sources:

  
flag of Botswana   

Sectional Chart

Flight Planning
at skyvector.com

Satellite Image

Google Maps Satellite View

 

Copyright © 2004-2014 Karl L. Swartz. All rights reserved.
The Great Circle Mapper name and logo are trademarks of the Great Circle Mapper.
All other trademarks mentioned herein belong to their respective owners.
Please see credits for attibutions and further copyright information.

  Follow gcmap on Facebook Follow gcmap on Twitter

hCard Microformat

Geo Microformat